createdAt,value
2023-03-22T00:00:25.090Z,9.1
2023-03-22T00:05:25.099Z,9.6
2023-03-22T00:10:25.096Z,9.8
2023-03-22T00:15:25.102Z,10.8
2023-03-22T00:20:25.104Z,10.9
2023-03-22T00:25:25.108Z,8.6
2023-03-22T00:30:25.091Z,10.1
2023-03-22T00:35:25.132Z,9.8
2023-03-22T00:40:25.096Z,10.4
2023-03-22T00:45:25.096Z,9.5
2023-03-22T00:50:25.091Z,10
2023-03-22T00:55:25.113Z,10.9
2023-03-22T01:00:25.109Z,9.8
2023-03-22T01:05:25.107Z,11
2023-03-22T01:10:25.105Z,11.3
2023-03-22T01:15:25.105Z,12.7
2023-03-22T01:20:25.101Z,11.7
2023-03-22T01:25:25.093Z,10.4
2023-03-22T01:30:25.157Z,9
2023-03-22T01:35:25.134Z,7.7
2023-03-22T01:40:25.102Z,10.4
2023-03-22T01:45:25.106Z,8.9
2023-03-22T01:50:25.099Z,9.7
2023-03-22T01:55:25.100Z,11.5
2023-03-22T02:00:25.095Z,11.5
2023-03-22T02:05:25.108Z,8.3
2023-03-22T02:10:25.097Z,9.9
2023-03-22T02:15:25.095Z,10.2
2023-03-22T02:20:25.096Z,10.3
2023-03-22T02:25:25.101Z,9.1
2023-03-22T02:30:25.090Z,7.7
2023-03-22T02:35:25.123Z,8.8
2023-03-22T02:40:25.091Z,8.2
2023-03-22T02:45:25.093Z,7.9
2023-03-22T02:50:25.101Z,7.5
2023-03-22T02:55:25.102Z,9.9
2023-03-22T03:00:25.130Z,10.2
2023-03-22T03:05:25.092Z,9.7
2023-03-22T03:10:25.089Z,12.3
2023-03-22T03:15:25.094Z,10.7
2023-03-22T03:20:25.089Z,8.3
2023-03-22T03:25:25.094Z,10.3
2023-03-22T03:30:25.099Z,10.5
2023-03-22T03:35:25.139Z,10.8
2023-03-22T03:40:25.104Z,9.3
2023-03-22T03:45:25.238Z,8.8
2023-03-22T03:50:25.099Z,10
2023-03-22T03:55:25.121Z,11.1
2023-03-22T04:00:25.121Z,8.4
2023-03-22T04:05:25.115Z,10.5
2023-03-22T04:10:25.116Z,8.2
2023-03-22T04:15:25.119Z,9.9
2023-03-22T04:20:25.114Z,9.6
2023-03-22T04:25:25.116Z,7.6
2023-03-22T04:30:25.107Z,9
2023-03-22T04:35:25.156Z,9.9
2023-03-22T04:40:25.115Z,7.6
2023-03-22T04:45:25.125Z,7.7
2023-03-22T04:50:25.123Z,8.8
2023-03-22T04:55:25.108Z,8.6
2023-03-22T05:00:25.107Z,8.3
2023-03-22T05:05:25.126Z,7.4
2023-03-22T05:10:25.101Z,8.9
2023-03-22T05:15:25.107Z,10.2
2023-03-22T05:20:25.121Z,9.1
2023-03-22T05:25:25.103Z,7.8
2023-03-22T05:30:25.099Z,8.5
2023-03-22T05:35:25.119Z,9.9
2023-03-22T05:40:25.106Z,9.5
2023-03-22T05:45:25.119Z,10.6
2023-03-22T05:50:25.114Z,10
2023-03-22T05:55:25.127Z,10.4
2023-03-22T06:00:25.130Z,9.5
2023-03-22T06:05:25.114Z,9.5
2023-03-22T06:10:25.121Z,10.4
2023-03-22T06:15:25.126Z,10.5
2023-03-22T06:20:25.124Z,10.1
2023-03-22T06:25:25.118Z,13.1
2023-03-22T06:30:25.151Z,11.8
2023-03-22T06:35:25.151Z,13.7
2023-03-22T06:40:25.106Z,13.9
2023-03-22T06:45:25.099Z,13
2023-03-22T06:50:25.105Z,15.2
2023-03-22T06:55:25.116Z,13.9
2023-03-22T07:00:25.104Z,12.5
2023-03-22T07:05:25.106Z,10.3
2023-03-22T07:10:25.114Z,11.9
2023-03-22T07:15:25.123Z,14.3
2023-03-22T07:20:25.119Z,16.2
2023-03-22T07:25:25.113Z,16.9
2023-03-22T07:30:25.114Z,22.3
2023-03-22T07:35:26.923Z,21.7
2023-03-22T07:40:25.121Z,27
2023-03-22T07:45:25.195Z,20.5
2023-03-22T07:50:25.104Z,19.6
2023-03-22T07:55:25.114Z,21.4
2023-03-22T08:00:25.107Z,22.5
2023-03-22T08:05:25.108Z,21.3
2023-03-22T08:10:25.116Z,22.5
2023-03-22T08:15:25.115Z,35.7
2023-03-22T08:20:25.103Z,28
2023-03-22T08:25:25.363Z,30.5
2023-03-22T08:30:25.119Z,33.2
2023-03-22T08:35:25.102Z,31
2023-03-22T08:40:25.169Z,31.9
2023-03-22T08:45:25.107Z,23.8
2023-03-22T08:50:25.194Z,32.3
2023-03-22T08:55:25.103Z,26.6
2023-03-22T09:00:25.169Z,36.4
2023-03-22T09:05:25.101Z,29.2
2023-03-22T09:10:25.223Z,35.7
2023-03-22T09:15:25.106Z,30.5
2023-03-22T09:20:25.110Z,33.7
2023-03-22T09:25:25.094Z,32.5
2023-03-22T09:30:25.098Z,35.2
2023-03-22T09:35:25.170Z,22.7
2023-03-22T09:40:25.099Z,19.7
2023-03-22T09:45:25.117Z,25.6
2023-03-22T09:50:25.087Z,32.8
2023-03-22T09:55:25.099Z,24.1
2023-03-22T10:00:25.137Z,35.9
2023-03-22T10:05:25.091Z,31.3
2023-03-22T10:10:25.096Z,35.4
2023-03-22T10:15:25.088Z,22.8
2023-03-22T10:20:25.091Z,23.7
2023-03-22T10:25:25.084Z,33.2
2023-03-22T10:30:25.090Z,30.8
2023-03-22T10:35:25.147Z,23.3
2023-03-22T10:40:25.086Z,20.8
2023-03-22T10:45:25.094Z,23.4
2023-03-22T10:50:25.089Z,29.8
2023-03-22T10:55:25.088Z,34.7
2023-03-22T11:00:25.206Z,33
2023-03-22T11:05:25.120Z,26.7
2023-03-22T11:10:25.113Z,30.3
2023-03-22T11:15:25.086Z,31.7
2023-03-22T11:20:25.113Z,27.5
2023-03-22T11:25:25.104Z,25.7
2023-03-22T11:30:25.103Z,33.9
2023-03-22T11:35:25.116Z,43
2023-03-22T11:40:25.092Z,31.7
2023-03-22T11:45:25.157Z,44.1
2023-03-22T11:50:25.101Z,28.9
2023-03-22T11:55:25.115Z,36.9
2023-03-22T12:00:25.105Z,33.7
2023-03-22T12:05:25.094Z,30.3
2023-03-22T12:10:25.088Z,29.2
2023-03-22T12:15:25.091Z,44.4
2023-03-22T12:20:25.109Z,42.6
2023-03-22T12:25:25.103Z,43
2023-03-22T12:30:25.169Z,35
2023-03-22T12:35:25.100Z,30.6
2023-03-22T12:40:25.123Z,30.3
2023-03-22T12:45:25.196Z,36.9
2023-03-22T12:50:25.122Z,35.7
2023-03-22T12:55:25.175Z,43.7
2023-03-22T13:00:25.154Z,35.7
2023-03-22T13:05:25.156Z,36.9
2023-03-22T13:10:25.182Z,46.5
2023-03-22T13:15:31.511Z,28.3
2023-03-22T13:20:25.158Z,41.6
2023-03-22T13:25:25.196Z,35.9
2023-03-22T13:30:25.099Z,37.4
2023-03-22T13:35:25.152Z,45.6
2023-03-22T13:40:25.111Z,37.4
2023-03-22T13:45:25.103Z,34.7
2023-03-22T13:50:25.100Z,40.3
2023-03-22T13:55:25.098Z,38
2023-03-22T14:00:25.094Z,28.9
2023-03-22T14:05:25.121Z,26.7
2023-03-22T14:10:25.097Z,27.8
2023-03-22T14:15:25.098Z,31.2
2023-03-22T14:20:25.106Z,23.6
2023-03-22T14:55:25.098Z,33.9
2023-03-22T15:00:25.090Z,29.4
2023-03-22T15:05:25.100Z,43.7
2023-03-22T15:10:25.107Z,34.5
2023-03-22T15:15:25.110Z,31.3
2023-03-22T15:20:25.111Z,27.8
2023-03-22T15:25:25.099Z,26.9
2023-03-22T15:30:25.103Z,28.3
2023-03-22T15:35:25.096Z,29.1
2023-03-22T15:40:25.089Z,25.2
2023-03-22T15:45:25.124Z,34.3
2023-03-22T15:50:25.100Z,28
2023-03-22T15:55:25.099Z,27.2
2023-03-22T16:00:25.090Z,28.2
2023-03-22T16:05:25.176Z,24.3
2023-03-22T16:10:25.085Z,25.4
2023-03-22T16:15:25.088Z,34.1
2023-03-22T16:20:25.114Z,29.2
2023-03-22T16:25:25.105Z,28.5
2023-03-22T16:30:25.096Z,26.9
2023-03-22T16:35:25.090Z,24.8
2023-03-22T16:40:25.090Z,21.9
2023-03-22T16:45:25.102Z,19.6
2023-03-22T16:50:25.087Z,26.6
2023-03-22T16:55:25.103Z,23.5
2023-03-22T17:00:25.102Z,19.2
2023-03-22T17:05:25.097Z,21.5
2023-03-22T17:10:25.094Z,20.4
2023-03-22T17:15:25.101Z,16.5
2023-03-22T17:20:25.100Z,15.5
2023-03-22T17:25:25.099Z,15.8
2023-03-22T17:30:25.110Z,12.7
2023-03-22T17:35:25.087Z,11.9
2023-03-22T17:45:27.405Z,12.7
2023-03-22T17:50:25.102Z,15.8
2023-03-22T17:55:35.000Z,15.2
2023-03-22T18:00:25.120Z,15.3
2023-03-22T18:05:31.932Z,16.2
2023-03-22T18:10:25.083Z,9.7
2023-03-22T18:15:25.103Z,9.8
2023-03-22T18:20:40.234Z,10.8
2023-03-22T18:25:26.982Z,12.6
2023-03-22T18:30:25.095Z,11.5
2023-03-22T18:35:25.090Z,13
2023-03-22T18:40:45.238Z,12.5
2023-03-22T18:45:30.449Z,12
2023-03-22T18:50:25.096Z,10.1
2023-03-22T18:55:29.038Z,11.9
2023-03-22T19:00:25.097Z,9.2
2023-03-22T19:05:25.098Z,9.2
2023-03-22T19:10:25.087Z,9.3
2023-03-22T19:15:42.280Z,9
2023-03-22T19:20:25.089Z,10.6
2023-03-22T19:25:25.094Z,11.4
2023-03-22T19:30:25.092Z,10.3
2023-03-22T19:35:25.101Z,9.6
2023-03-22T19:45:25.099Z,11.7
2023-03-22T19:50:25.093Z,10.6
2023-03-22T19:55:25.101Z,10.3
2023-03-22T20:00:44.859Z,10.8
2023-03-22T20:05:25.498Z,11
2023-03-22T20:10:25.101Z,11.3
2023-03-22T20:15:25.103Z,10.4
2023-03-22T20:20:25.110Z,7.9
2023-03-22T20:25:25.102Z,5.8
2023-03-22T20:30:25.110Z,0
2023-03-22T20:35:25.100Z,0
2023-03-22T20:40:25.095Z,0
2023-03-22T20:45:25.100Z,5.9
2023-03-22T20:50:25.086Z,7.6
2023-03-22T20:55:25.095Z,7.6
2023-03-22T21:00:25.089Z,8.7
2023-03-22T21:05:25.096Z,9.5
2023-03-22T21:10:25.085Z,9.5
2023-03-22T21:15:25.101Z,8.2
2023-03-22T21:20:30.550Z,9
2023-03-22T21:25:25.096Z,7.2
2023-03-22T21:30:25.099Z,6.6
2023-03-22T21:35:25.101Z,6.8
2023-03-22T21:40:25.110Z,5.9
2023-03-22T21:45:25.099Z,8.9
2023-03-22T21:50:25.092Z,13
2023-03-22T21:55:25.111Z,12.9
2023-03-22T22:00:25.128Z,15.6
2023-03-22T22:05:25.106Z,13.8
2023-03-22T22:10:25.101Z,12.4
2023-03-22T22:15:25.104Z,11.6
2023-03-22T22:20:25.103Z,13.2
2023-03-22T22:25:25.095Z,15.1
2023-03-22T22:30:26.265Z,13.6
2023-03-22T22:35:25.130Z,10.4
2023-03-22T22:40:25.098Z,9.6
2023-03-22T22:45:25.092Z,10.2
2023-03-22T22:50:25.089Z,10.3
2023-03-22T22:55:25.099Z,13.5
2023-03-22T23:00:25.109Z,9.9
2023-03-22T23:05:25.088Z,11.4
2023-03-22T23:10:25.089Z,11.7
2023-03-22T23:15:27.182Z,11.4
2023-03-22T23:20:25.090Z,9.7
2023-03-22T23:25:25.095Z,12.3
2023-03-22T23:30:25.101Z,15.1
2023-03-22T23:35:25.150Z,16.6
2023-03-22T23:40:25.084Z,18.8
2023-03-22T23:45:25.099Z,21.1
2023-03-22T23:50:25.095Z,23.9
2023-03-22T23:55:25.101Z,26.4
